Portada
METAR-TAF:

METAR-TAF

Aeroports :

Aeroport Internacional de Nador

Nador, Marroc

latitud: 34-59-20N, longitud: 003-01-42W, altitud: 175 m

Observació

L'informe es va fer fa 33 minuts, a les 12:00 UTC
Vent 13 kt del Nord-Est, variant entre Nord i Est
Temperatura 23°C
Humitat 57%
Pressió 1013 hPa
Visibilitat: 6000 m
Escasses núvols a una alçada de 2000 ft

METAR: GMMW 301200Z 05013KT 360V090 6000 FEW020 23/14 Q1013 NOSIG

Hora: 13:33 (12:33 UTC)

Pronòstic

L'informe es va fer fa 1 hora i 33 minuts, a les 11:00 UTC
Pronòstic vàlid del 30 a les 12 UTC al 31 a les 18 UTC
Vent 12 kt del Nord/Nord-Est
Visibilitat: 6000 m
Núvols disperses a una alçada de 2000 ft
Probabilitat 30% :
Temporalment
l' 31 a les 06 UTC al 31 a les 12 UTC
Cel cobert a una alçada de 900 ft
Escasses núvols a una alçada de 3000 ft, Cumulonimbus.
tempesta, (lleu

TAF: GMMW 301100Z 3012/3118 02012KT 6000 SCT020 PROB30 TEMPO 3106/3112 -TS OVC009 FEW030CB

Observacions i pronòstics meteorològics de més de 4000 aeroports (METAR i TAF).

Les estacions disponibles són els punts grocs i vermells al mapa.

Posi el ratolí al punt desitjat per veure el nom de l'estació.

Feu clic per veure les observacions i els pronòstics meteorològics.

Per canviar el mapa: feu clic els botons verds amb una creu de color negre per apropar; al botó verd amb un guió per allunyar la imatge; o en les fletxes verdes per a mapes adjacents.


METAR-TAF: